sensor_id;sensor_type;location;lat;lon;timestamp;P1;durP1;ratioP1;P2;durP2;ratioP2
22017;SDS011;11173;51.050;7.108;2023-10-09T00:04:24;0.73;;;0.70;;
22017;SDS011;11173;51.050;7.108;2023-10-09T00:14:29;0.50;;;0.50;;
22017;SDS011;11173;51.050;7.108;2023-10-09T00:24:33;0.50;;;0.50;;
22017;SDS011;11173;51.050;7.108;2023-10-09T00:34:34;0.60;;;0.60;;
22017;SDS011;11173;51.050;7.108;2023-10-09T00:44:40;0.40;;;0.40;;
22017;SDS011;11173;51.050;7.108;2023-10-09T00:54:42;1.00;;;0.50;;
22017;SDS011;11173;51.050;7.108;2023-10-09T01:04:44;1.10;;;0.93;;
22017;SDS011;11173;51.050;7.108;2023-10-09T01:14:45;0.40;;;0.40;;
22017;SDS011;11173;51.050;7.108;2023-10-09T01:24:52;0.28;;;0.28;;
22017;SDS011;11173;51.050;7.108;2023-10-09T01:34:55;0.32;;;0.32;;
22017;SDS011;11173;51.050;7.108;2023-10-09T01:44:58;0.50;;;0.50;;
22017;SDS011;11173;51.050;7.108;2023-10-09T01:54:58;0.70;;;0.50;;
22017;SDS011;11173;51.050;7.108;2023-10-09T02:05:04;0.30;;;0.30;;
22017;SDS011;11173;51.050;7.108;2023-10-09T02:15:15;0.40;;;0.32;;
22017;SDS011;11173;51.050;7.108;2023-10-09T02:25:16;0.30;;;0.30;;
22017;SDS011;11173;51.050;7.108;2023-10-09T02:35:21;0.22;;;0.22;;
22017;SDS011;11173;51.050;7.108;2023-10-09T02:45:43;0.55;;;0.55;;
22017;SDS011;11173;51.050;7.108;2023-10-09T02:55:50;0.52;;;0.40;;
22017;SDS011;11173;51.050;7.108;2023-10-09T03:06:13;0.30;;;0.30;;
22017;SDS011;11173;51.050;7.108;2023-10-09T03:16:19;0.40;;;0.40;;
22017;SDS011;11173;51.050;7.108;2023-10-09T03:26:20;0.30;;;0.30;;
22017;SDS011;11173;51.050;7.108;2023-10-09T03:36:21;0.25;;;0.25;;
22017;SDS011;11173;51.050;7.108;2023-10-09T03:46:21;0.38;;;0.38;;
22017;SDS011;11173;51.050;7.108;2023-10-09T03:56:26;0.50;;;0.40;;
22017;SDS011;11173;51.050;7.108;2023-10-09T04:06:26;0.30;;;0.30;;
22017;SDS011;11173;51.050;7.108;2023-10-09T04:16:34;0.30;;;0.30;;
22017;SDS011;11173;51.050;7.108;2023-10-09T04:26:51;0.50;;;0.50;;
22017;SDS011;11173;51.050;7.108;2023-10-09T04:36:57;0.40;;;0.40;;
22017;SDS011;11173;51.050;7.108;2023-10-09T04:47:01;0.35;;;0.35;;
22017;SDS011;11173;51.050;7.108;2023-10-09T04:57:11;1.15;;;0.70;;
22017;SDS011;11173;51.050;7.108;2023-10-09T05:07:18;0.57;;;0.50;;
22017;SDS011;11173;51.050;7.108;2023-10-09T05:17:46;0.60;;;0.52;;
22017;SDS011;11173;51.050;7.108;2023-10-09T05:27:56;0.50;;;0.50;;
22017;SDS011;11173;51.050;7.108;2023-10-09T05:38:16;0.50;;;0.50;;
22017;SDS011;11173;51.050;7.108;2023-10-09T05:48:24;0.40;;;0.40;;
22017;SDS011;11173;51.050;7.108;2023-10-09T05:58:24;0.32;;;0.32;;
22017;SDS011;11173;51.050;7.108;2023-10-09T06:09:03;0.60;;;0.20;;
22017;SDS011;11173;51.050;7.108;2023-10-09T06:19:14;0.20;;;0.20;;
22017;SDS011;11173;51.050;7.108;2023-10-09T06:29:20;0.30;;;0.20;;
22017;SDS011;11173;51.050;7.108;2023-10-09T06:39:36;0.30;;;0.30;;
22017;SDS011;11173;51.050;7.108;2023-10-09T06:49:55;1.17;;;1.07;;
22017;SDS011;11173;51.050;7.108;2023-10-09T07:00:15;0.40;;;0.40;;
22017;SDS011;11173;51.050;7.108;2023-10-09T07:10:35;2.10;;;1.75;;
22017;SDS011;11173;51.050;7.108;2023-10-09T07:20:39;3.08;;;2.00;;
22017;SDS011;11173;51.050;7.108;2023-10-09T07:30:45;4.13;;;2.20;;
22017;SDS011;11173;51.050;7.108;2023-10-09T07:40:56;1.30;;;1.20;;
22017;SDS011;11173;51.050;7.108;2023-10-09T07:51:02;1.83;;;1.73;;
22017;SDS011;11173;51.050;7.108;2023-10-09T08:01:05;2.85;;;2.55;;
22017;SDS011;11173;51.050;7.108;2023-10-09T08:11:15;2.60;;;2.40;;
22017;SDS011;11173;51.050;7.108;2023-10-09T08:21:42;1.47;;;1.37;;
22017;SDS011;11173;51.050;7.108;2023-10-09T08:32:26;1.90;;;1.67;;
22017;SDS011;11173;51.050;7.108;2023-10-09T08:43:21;1.45;;;0.88;;
22017;SDS011;11173;51.050;7.108;2023-10-09T09:27:44;0.60;;;0.60;;
22017;SDS011;11173;51.050;7.108;2023-10-09T09:48:18;1.00;;;0.90;;
22017;SDS011;11173;51.050;7.108;2023-10-09T09:58:19;1.33;;;1.00;;
22017;SDS011;11173;51.050;7.108;2023-10-09T10:08:20;2.10;;;1.45;;
22017;SDS011;11173;51.050;7.108;2023-10-09T10:18:22;3.85;;;2.75;;
22017;SDS011;11173;51.050;7.108;2023-10-09T10:28:24;3.13;;;2.78;;
22017;SDS011;11173;51.050;7.108;2023-10-09T10:38:29;2.03;;;1.70;;
22017;SDS011;11173;51.050;7.108;2023-10-09T10:48:54;3.83;;;2.05;;
22017;SDS011;11173;51.050;7.108;2023-10-09T10:59:14;3.65;;;2.28;;
22017;SDS011;11173;51.050;7.108;2023-10-09T11:09:22;5.53;;;2.57;;
22017;SDS011;11173;51.050;7.108;2023-10-09T11:19:23;3.92;;;2.55;;
22017;SDS011;11173;51.050;7.108;2023-10-09T11:29:27;2.38;;;2.17;;
22017;SDS011;11173;51.050;7.108;2023-10-09T11:39:28;3.17;;;2.88;;
22017;SDS011;11173;51.050;7.108;2023-10-09T11:49:46;3.63;;;2.72;;
22017;SDS011;11173;51.050;7.108;2023-10-09T12:00:03;3.53;;;2.60;;
22017;SDS011;11173;51.050;7.108;2023-10-09T12:10:30;3.70;;;2.73;;
22017;SDS011;11173;51.050;7.108;2023-10-09T12:20:31;2.47;;;2.28;;
22017;SDS011;11173;51.050;7.108;2023-10-09T12:30:34;5.40;;;3.50;;
22017;SDS011;11173;51.050;7.108;2023-10-09T12:40:39;4.35;;;2.83;;
22017;SDS011;11173;51.050;7.108;2023-10-09T12:50:41;4.32;;;3.38;;
22017;SDS011;11173;51.050;7.108;2023-10-09T13:00:42;3.70;;;2.85;;
22017;SDS011;11173;51.050;7.108;2023-10-09T13:10:49;4.32;;;3.28;;
22017;SDS011;11173;51.050;7.108;2023-10-09T13:21:00;3.40;;;3.10;;
22017;SDS011;11173;51.050;7.108;2023-10-09T13:31:04;3.60;;;2.60;;
22017;SDS011;11173;51.050;7.108;2023-10-09T13:41:04;3.50;;;2.83;;
22017;SDS011;11173;51.050;7.108;2023-10-09T13:51:05;2.30;;;2.07;;
22017;SDS011;11173;51.050;7.108;2023-10-09T14:01:09;4.40;;;2.90;;
22017;SDS011;11173;51.050;7.108;2023-10-09T14:11:10;4.38;;;3.28;;
22017;SDS011;11173;51.050;7.108;2023-10-09T14:21:13;4.25;;;3.40;;
22017;SDS011;11173;51.050;7.108;2023-10-09T14:31:16;4.65;;;4.22;;
22017;SDS011;11173;51.050;7.108;2023-10-09T14:41:20;3.65;;;3.25;;
22017;SDS011;11173;51.050;7.108;2023-10-09T14:51:23;3.72;;;3.35;;
22017;SDS011;11173;51.050;7.108;2023-10-09T15:01:27;4.05;;;3.20;;
22017;SDS011;11173;51.050;7.108;2023-10-09T15:11:29;6.40;;;2.92;;
22017;SDS011;11173;51.050;7.108;2023-10-09T15:21:30;2.97;;;2.78;;
22017;SDS011;11173;51.050;7.108;2023-10-09T15:31:33;3.95;;;2.70;;
22017;SDS011;11173;51.050;7.108;2023-10-09T15:41:34;3.13;;;2.70;;
22017;SDS011;11173;51.050;7.108;2023-10-09T15:51:35;2.30;;;2.10;;
22017;SDS011;11173;51.050;7.108;2023-10-09T16:01:36;4.40;;;2.83;;
22017;SDS011;11173;51.050;7.108;2023-10-09T16:11:41;5.70;;;3.00;;
22017;SDS011;11173;51.050;7.108;2023-10-09T16:21:41;2.90;;;2.70;;
22017;SDS011;11173;51.050;7.108;2023-10-09T16:31:43;2.42;;;2.22;;
22017;SDS011;11173;51.050;7.108;2023-10-09T16:41:46;2.30;;;2.10;;
22017;SDS011;11173;51.050;7.108;2023-10-09T16:51:47;4.20;;;2.70;;
22017;SDS011;11173;51.050;7.108;2023-10-09T17:01:47;7.30;;;2.90;;
22017;SDS011;11173;51.050;7.108;2023-10-09T17:11:49;2.63;;;2.30;;
22017;SDS011;11173;51.050;7.108;2023-10-09T17:21:52;2.50;;;2.22;;
22017;SDS011;11173;51.050;7.108;2023-10-09T17:31:53;2.80;;;2.10;;
22017;SDS011;11173;51.050;7.108;2023-10-09T17:41:53;3.65;;;3.35;;
22017;SDS011;11173;51.050;7.108;2023-10-09T17:51:55;4.55;;;4.07;;
22017;SDS011;11173;51.050;7.108;2023-10-09T18:01:58;5.88;;;3.80;;
22017;SDS011;11173;51.050;7.108;2023-10-09T18:11:59;4.23;;;3.17;;
22017;SDS011;11173;51.050;7.108;2023-10-09T18:22:01;4.45;;;3.53;;
22017;SDS011;11173;51.050;7.108;2023-10-09T18:32:02;3.10;;;2.80;;
22017;SDS011;11173;51.050;7.108;2023-10-09T18:42:02;3.80;;;3.22;;
22017;SDS011;11173;51.050;7.108;2023-10-09T18:52:03;2.67;;;2.47;;
22017;SDS011;11173;51.050;7.108;2023-10-09T19:02:06;4.78;;;3.28;;
22017;SDS011;11173;51.050;7.108;2023-10-09T19:12:11;2.53;;;2.33;;
22017;SDS011;11173;51.050;7.108;2023-10-09T19:22:11;2.53;;;2.33;;
22017;SDS011;11173;51.050;7.108;2023-10-09T19:32:13;3.38;;;2.63;;
22017;SDS011;11173;51.050;7.108;2023-10-09T19:42:14;3.03;;;2.63;;
22017;SDS011;11173;51.050;7.108;2023-10-09T19:52:15;3.40;;;3.10;;
22017;SDS011;11173;51.050;7.108;2023-10-09T20:02:17;5.50;;;3.92;;
22017;SDS011;11173;51.050;7.108;2023-10-09T20:12:18;3.78;;;3.40;;
22017;SDS011;11173;51.050;7.108;2023-10-09T20:22:20;6.15;;;4.57;;
22017;SDS011;11173;51.050;7.108;2023-10-09T20:32:21;5.53;;;4.35;;
22017;SDS011;11173;51.050;7.108;2023-10-09T20:42:22;4.53;;;4.13;;
22017;SDS011;11173;51.050;7.108;2023-10-09T20:52:24;4.30;;;3.58;;
22017;SDS011;11173;51.050;7.108;2023-10-09T21:02:25;4.05;;;3.60;;
22017;SDS011;11173;51.050;7.108;2023-10-09T21:12:26;5.07;;;4.30;;
22017;SDS011;11173;51.050;7.108;2023-10-09T21:22:26;5.57;;;4.53;;
22017;SDS011;11173;51.050;7.108;2023-10-09T21:32:27;6.45;;;4.55;;
22017;SDS011;11173;51.050;7.108;2023-10-09T21:42:27;5.53;;;5.03;;
22017;SDS011;11173;51.050;7.108;2023-10-09T21:52:28;5.30;;;4.40;;
22017;SDS011;11173;51.050;7.108;2023-10-09T22:02:29;4.17;;;3.20;;
22017;SDS011;11173;51.050;7.108;2023-10-09T22:12:32;4.35;;;3.92;;
22017;SDS011;11173;51.050;7.108;2023-10-09T22:22:32;3.35;;;3.05;;
22017;SDS011;11173;51.050;7.108;2023-10-09T22:32:33;1.38;;;1.15;;
22017;SDS011;11173;51.050;7.108;2023-10-09T22:42:34;0.93;;;0.70;;
22017;SDS011;11173;51.050;7.108;2023-10-09T22:52:36;1.40;;;1.27;;
22017;SDS011;11173;51.050;7.108;2023-10-09T23:02:37;3.80;;;3.35;;
22017;SDS011;11173;51.050;7.108;2023-10-09T23:12:50;2.38;;;2.17;;
22017;SDS011;11173;51.050;7.108;2023-10-09T23:22:50;1.40;;;1.30;;
22017;SDS011;11173;51.050;7.108;2023-10-09T23:32:52;1.17;;;1.10;;
22017;SDS011;11173;51.050;7.108;2023-10-09T23:43:20;1.65;;;1.55;;
22017;SDS011;11173;51.050;7.108;2023-10-09T23:53:31;1.35;;;1.05;;
